Time;durP1;ratioP1;P1;durP2;ratioP2;P2;SDS_P1;SDS_P2;PMS_P1;PMS_P2;Temp;Humidity;BMP_temperature;BMP_pressure;BME280_temperature;BME280_humidity;BME280_pressure;Samples;Min_cycle;Max_cycle;Signal;HPM_P1;HPM_P2
2021/09/10 00:02:03;;;;;;;5.45;3.22;;;;;;;;;;5029267;28;20510;-57
2021/09/10 00:04:29;;;;;;;4.35;3.40;;;;;;;;;;5032177;28;20025;-56
2021/09/10 00:06:54;;;;;;;6.13;3.50;;;;;;;;;;5031382;28;20387;-57
2021/09/10 00:09:20;;;;;;;3.47;2.85;;;;;;;;;;5031050;28;20103;-57
2021/09/10 00:11:45;;;;;;;5.28;3.88;;;;;;;;;;5032164;28;20044;-57
2021/09/10 00:14:11;;;;;;;6.32;2.65;;;;;;;;;;5031541;28;20040;-57
2021/09/10 00:16:37;;;;;;;3.83;2.88;;;;;;;;;;5030368;28;20412;-57
2021/09/10 00:19:03;;;;;;;4.50;3.08;;;;;;;;;;5030419;28;20462;-59
2021/09/10 00:21:29;;;;;;;3.65;2.63;;;;;;;;;;5031659;28;20017;-56
2021/09/10 00:23:54;;;;;;;4.25;3.00;;;;;;;;;;5030865;28;20044;-56
2021/09/10 00:26:19;;;;;;;5.80;3.53;;;;;;;;;;5029897;28;20682;-57
2021/09/10 00:28:45;;;;;;;3.53;2.35;;;;;;;;;;5025029;28;20029;-56
2021/09/10 00:31:11;;;;;;;4.55;3.53;;;;;;;;;;5022059;28;20033;-56
2021/09/10 00:33:36;;;;;;;9.23;2.70;;;;;;;;;;5027522;28;20130;-56
2021/09/10 00:36:02;;;;;;;3.63;2.60;;;;;;;;;;5031311;28;20044;-56
2021/09/10 00:38:27;;;;;;;3.08;2.45;;;;;;;;;;5027993;28;20037;-58
2021/09/10 00:40:53;;;;;;;4.38;2.80;;;;;;;;;;5027887;28;20037;-58
2021/09/10 00:43:19;;;;;;;3.78;2.47;;;;;;;;;;5029122;28;20033;-58
2021/09/10 00:45:45;;;;;;;3.70;3.13;;;;;;;;;;5029996;28;20042;-58
2021/09/10 00:48:13;;;;;;;3.72;2.92;;;;;;;;;;5029218;28;20143;-58
2021/09/10 00:50:41;;;;;;;4.82;2.63;;;;;;;;;;5029461;28;20103;-58
2021/09/10 00:53:06;;;;;;;4.38;3.25;;;;;;;;;;5027737;28;20370;-58
2021/09/10 00:55:32;;;;;;;3.83;3.05;;;;;;;;;;5028595;28;20137;-58
2021/09/10 00:57:58;;;;;;;4.43;3.00;;;;;;;;;;5031004;28;20033;-58
2021/09/10 01:00:23;;;;;;;4.43;2.83;;;;;;;;;;5030401;28;20039;-58
2021/09/10 01:02:49;;;;;;;5.57;3.38;;;;;;;;;;5030594;28;20029;-58
2021/09/10 01:05:15;;;;;;;6.18;3.58;;;;;;;;;;5029792;28;20084;-58
2021/09/10 01:07:42;;;;;;;4.55;3.00;;;;;;;;;;5030458;28;20404;-58
2021/09/10 01:10:08;;;;;;;3.20;2.55;;;;;;;;;;5029816;28;20040;-59
2021/09/10 01:12:33;;;;;;;3.60;3.08;;;;;;;;;;5029278;28;20034;-58
2021/09/10 01:15:01;;;;;;;4.57;3.50;;;;;;;;;;5029821;28;20068;-58
2021/09/10 01:17:26;;;;;;;4.95;3.45;;;;;;;;;;5031284;28;20340;-58
2021/09/10 01:19:51;;;;;;;4.75;3.45;;;;;;;;;;5029731;28;20037;-58
2021/09/10 01:22:17;;;;;;;4.28;2.67;;;;;;;;;;5030475;28;20037;-58
2021/09/10 01:25:19;;;;;;;3.20;2.63;;;;;;;;;;5028910;28;20122;-59
2021/09/10 01:27:55;;;;;;;3.33;2.38;;;;;;;;;;5047960;28;20037;-58
2021/09/10 01:30:24;;;;;;;3.00;2.25;;;;;;;;;;5032543;28;20042;-58
2021/09/10 01:32:49;;;;;;;3.08;2.17;;;;;;;;;;5029559;28;20032;-58
2021/09/10 01:35:16;;;;;;;3.75;2.42;;;;;;;;;;5026658;28;20561;-58
2021/09/10 01:37:42;;;;;;;6.93;3.25;;;;;;;;;;5025400;28;20037;-58
2021/09/10 01:40:08;;;;;;;3.95;2.90;;;;;;;;;;5026896;28;20033;-58
2021/09/10 01:42:34;;;;;;;3.22;2.30;;;;;;;;;;5027559;28;20029;-58
2021/09/10 01:44:59;;;;;;;4.00;3.03;;;;;;;;;;5026268;28;20308;-58
2021/09/10 01:47:25;;;;;;;4.72;3.35;;;;;;;;;;5027570;28;20033;-58
2021/09/10 01:49:51;;;;;;;3.63;2.83;;;;;;;;;;5028223;28;20037;-58
2021/09/10 01:52:16;;;;;;;6.20;3.05;;;;;;;;;;5028366;28;20211;-58
2021/09/10 01:54:42;;;;;;;4.72;3.05;;;;;;;;;;5028620;28;20022;-58
2021/09/10 01:57:07;;;;;;;3.85;2.88;;;;;;;;;;5028609;28;20363;-58
2021/09/10 01:59:33;;;;;;;3.65;2.90;;;;;;;;;;5028169;28;20041;-58
2021/09/10 02:01:58;;;;;;;3.45;2.83;;;;;;;;;;5029440;28;20447;-58
2021/09/10 02:04:23;;;;;;;3.72;2.97;;;;;;;;;;5028861;28;20652;-58
2021/09/10 02:06:49;;;;;;;3.63;2.78;;;;;;;;;;5029487;28;20138;-58
2021/09/10 02:09:14;;;;;;;5.60;3.22;;;;;;;;;;5025788;28;20049;-58
2021/09/10 02:11:40;;;;;;;4.70;3.15;;;;;;;;;;5030042;28;20482;-58
2021/09/10 02:14:05;;;;;;;4.18;3.38;;;;;;;;;;5029033;28;20025;-58
2021/09/10 02:16:31;;;;;;;3.92;2.80;;;;;;;;;;5029556;28;20064;-58
2021/09/10 02:18:57;;;;;;;3.63;2.75;;;;;;;;;;5029512;28;20041;-58
2021/09/10 02:21:22;;;;;;;3.63;2.70;;;;;;;;;;5029242;28;20045;-58
2021/09/10 02:23:48;;;;;;;4.05;3.00;;;;;;;;;;5029105;28;20492;-58
2021/09/10 02:26:13;;;;;;;4.07;2.90;;;;;;;;;;5026845;28;20041;-59
2021/09/10 02:28:39;;;;;;;6.25;3.08;;;;;;;;;;5028680;28;20570;-59
2021/09/10 02:31:04;;;;;;;5.53;3.20;;;;;;;;;;5029296;28;20040;-59
2021/09/10 02:33:30;;;;;;;3.53;3.00;;;;;;;;;;5028339;28;20041;-57
2021/09/10 02:35:56;;;;;;;4.25;2.78;;;;;;;;;;5028001;28;20037;-57
2021/09/10 02:38:22;;;;;;;4.10;2.75;;;;;;;;;;5026450;28;20041;-57
2021/09/10 02:40:48;;;;;;;3.35;2.80;;;;;;;;;;5027942;28;20070;-56
2021/09/10 02:43:14;;;;;;;3.58;2.95;;;;;;;;;;5025123;28;20052;-56
2021/09/10 02:45:39;;;;;;;3.33;2.33;;;;;;;;;;5028992;28;20123;-56
2021/09/10 02:48:05;;;;;;;5.07;2.90;;;;;;;;;;5027957;28;20056;-58
2021/09/10 02:50:30;;;;;;;5.30;3.03;;;;;;;;;;5028860;28;20045;-59
2021/09/10 02:52:56;;;;;;;3.00;2.38;;;;;;;;;;5027282;28;20069;-56
2021/09/10 02:55:22;;;;;;;3.33;2.67;;;;;;;;;;5029411;28;20037;-56
2021/09/10 02:57:47;;;;;;;4.22;3.25;;;;;;;;;;5028738;28;20045;-56
2021/09/10 03:00:13;;;;;;;4.97;3.05;;;;;;;;;;5025060;28;20076;-56
2021/09/10 03:02:38;;;;;;;3.85;3.08;;;;;;;;;;5028679;28;20037;-60
2021/09/10 03:05:06;;;;;;;4.30;3.13;;;;;;;;;;5028040;28;20467;-56
2021/09/10 03:07:31;;;;;;;4.35;3.13;;;;;;;;;;5029510;28;20095;-59
2021/09/10 03:09:56;;;;;;;3.35;2.63;;;;;;;;;;5028362;28;20045;-59
2021/09/10 03:12:22;;;;;;;8.50;3.38;;;;;;;;;;5027663;28;20033;-59
2021/09/10 03:14:47;;;;;;;3.85;2.92;;;;;;;;;;5028768;28;20112;-59
2021/09/10 03:17:13;;;;;;;3.78;2.67;;;;;;;;;;5029124;28;20510;-57
2021/09/10 03:19:40;;;;;;;5.35;3.65;;;;;;;;;;5027470;28;20034;-57
2021/09/10 03:22:05;;;;;;;5.35;3.10;;;;;;;;;;5028538;28;20025;-57
2021/09/10 03:24:31;;;;;;;4.18;2.75;;;;;;;;;;5027863;28;20033;-57
2021/09/10 03:26:57;;;;;;;4.25;2.88;;;;;;;;;;5027976;28;20076;-57
2021/09/10 03:29:22;;;;;;;4.00;2.67;;;;;;;;;;5028288;28;20421;-57
2021/09/10 03:31:48;;;;;;;3.72;2.67;;;;;;;;;;5028149;28;20037;-57
2021/09/10 03:34:13;;;;;;;4.63;2.53;;;;;;;;;;5028124;28;20466;-57
2021/09/10 03:36:39;;;;;;;4.80;3.40;;;;;;;;;;5028726;28;20025;-58
2021/09/10 03:39:04;;;;;;;3.42;2.58;;;;;;;;;;5028169;28;20028;-58
2021/09/10 03:41:29;;;;;;;3.90;3.03;;;;;;;;;;5027577;28;20522;-59
2021/09/10 03:43:55;;;;;;;3.60;2.70;;;;;;;;;;5028281;28;20025;-58
2021/09/10 03:46:21;;;;;;;12.13;3.10;;;;;;;;;;5027495;28;20477;-58
2021/09/10 03:48:48;;;;;;;3.60;2.67;;;;;;;;;;5028331;28;20040;-58
2021/09/10 03:51:14;;;;;;;5.88;2.63;;;;;;;;;;5027015;28;20081;-58
2021/09/10 03:53:39;;;;;;;3.58;2.83;;;;;;;;;;5027466;28;20387;-58
2021/09/10 03:56:05;;;;;;;4.43;2.67;;;;;;;;;;5027791;28;20029;-58
2021/09/10 03:58:30;;;;;;;3.55;2.38;;;;;;;;;;5030874;28;20041;-58
2021/09/10 04:00:56;;;;;;;2.90;2.30;;;;;;;;;;5025562;28;20041;-58
2021/09/10 04:03:21;;;;;;;4.13;2.90;;;;;;;;;;5032632;28;20032;-58
2021/09/10 04:05:48;;;;;;;3.83;3.05;;;;;;;;;;5030366;28;20606;-58
2021/09/10 04:08:14;;;;;;;3.90;2.70;;;;;;;;;;5031533;28;20577;-58
2021/09/10 04:10:39;;;;;;;4.40;3.53;;;;;;;;;;5032393;28;20041;-58
2021/09/10 04:13:04;;;;;;;5.32;3.90;;;;;;;;;;5037709;28;20488;-58
2021/09/10 04:15:30;;;;;;;3.53;2.53;;;;;;;;;;5032166;28;20034;-57
2021/09/10 04:17:55;;;;;;;3.35;2.42;;;;;;;;;;5032159;28;20095;-57
2021/09/10 04:20:21;;;;;;;2.72;2.08;;;;;;;;;;5032695;28;20033;-57
2021/09/10 04:22:46;;;;;;;5.10;3.38;;;;;;;;;;5032061;28;20029;-57
2021/09/10 04:25:12;;;;;;;4.13;3.20;;;;;;;;;;5032063;28;20128;-57
2021/09/10 04:27:38;;;;;;;3.42;2.78;;;;;;;;;;5032186;28;20041;-57
2021/09/10 04:30:07;;;;;;;5.28;3.22;;;;;;;;;;5031909;28;20064;-57
2021/09/10 04:32:33;;;;;;;4.00;2.83;;;;;;;;;;5031323;28;20190;-59
2021/09/10 04:34:59;;;;;;;3.92;2.95;;;;;;;;;;5030352;28;20120;-57
2021/09/10 04:37:24;;;;;;;4.40;3.22;;;;;;;;;;5032027;28;20037;-57
2021/09/10 04:39:50;;;;;;;7.32;3.58;;;;;;;;;;5031966;28;20132;-57
2021/09/10 04:42:15;;;;;;;4.60;3.35;;;;;;;;;;5031284;28;20052;-58
2021/09/10 04:44:41;;;;;;;3.53;2.78;;;;;;;;;;5031604;28;20064;-58
2021/09/10 04:47:06;;;;;;;4.80;3.25;;;;;;;;;;5031760;28;20029;-58
2021/09/10 04:49:32;;;;;;;4.15;3.22;;;;;;;;;;5030832;28;20030;-59
2021/09/10 04:51:57;;;;;;;3.42;2.92;;;;;;;;;;5031689;28;20508;-58
2021/09/10 04:54:23;;;;;;;3.63;3.08;;;;;;;;;;5031167;28;20058;-58
2021/09/10 04:56:48;;;;;;;3.67;2.65;;;;;;;;;;5031787;28;20033;-58
2021/09/10 04:59:13;;;;;;;5.03;3.65;;;;;;;;;;5030500;28;20026;-58
2021/09/10 05:01:39;;;;;;;5.68;3.05;;;;;;;;;;5031749;28;20612;-58
2021/09/10 05:04:04;;;;;;;4.40;3.05;;;;;;;;;;5030972;28;20029;-58
2021/09/10 05:06:30;;;;;;;4.25;3.47;;;;;;;;;;5031747;28;20103;-58
2021/09/10 05:08:56;;;;;;;5.88;3.88;;;;;;;;;;5030333;28;20559;-59
2021/09/10 05:11:22;;;;;;;5.43;3.80;;;;;;;;;;5021872;28;20045;-58
2021/09/10 05:13:48;;;;;;;4.13;2.72;;;;;;;;;;5030130;28;20539;-58
2021/09/10 05:16:13;;;;;;;6.60;3.63;;;;;;;;;;5029400;28;20037;-57
2021/09/10 05:18:39;;;;;;;3.63;2.97;;;;;;;;;;5028062;28;20379;-57
2021/09/10 05:21:05;;;;;;;4.45;3.10;;;;;;;;;;5028674;28;20037;-57
2021/09/10 05:23:31;;;;;;;3.85;3.05;;;;;;;;;;5029466;28;20026;-57
2021/09/10 05:25:57;;;;;;;4.35;3.45;;;;;;;;;;5028360;28;20044;-57
2021/09/10 05:28:23;;;;;;;3.70;2.60;;;;;;;;;;5029966;28;20033;-56
2021/09/10 05:30:50;;;;;;;3.95;3.28;;;;;;;;;;5029840;28;20048;-57
2021/09/10 05:33:15;;;;;;;3.70;2.67;;;;;;;;;;5028344;28;20362;-56
2021/09/10 05:35:40;;;;;;;4.57;3.75;;;;;;;;;;5027218;28;20116;-57
2021/09/10 05:38:06;;;;;;;3.33;2.60;;;;;;;;;;5027943;28;20037;-57
2021/09/10 05:40:31;;;;;;;5.65;3.00;;;;;;;;;;5026952;28;20041;-56
2021/09/10 05:42:57;;;;;;;4.38;3.30;;;;;;;;;;5029525;28;20033;-56
2021/09/10 05:45:22;;;;;;;3.90;2.67;;;;;;;;;;5031268;28;20111;-57
2021/09/10 05:47:47;;;;;;;4.47;3.38;;;;;;;;;;5026199;28;20029;-57
2021/09/10 05:50:13;;;;;;;3.80;2.95;;;;;;;;;;5028227;28;20056;-56
2021/09/10 05:52:38;;;;;;;3.13;2.40;;;;;;;;;;5026007;28;20441;-56
2021/09/10 05:55:04;;;;;;;3.25;2.50;;;;;;;;;;5027106;28;20091;-56
2021/09/10 05:57:30;;;;;;;5.50;4.10;;;;;;;;;;5028774;28;20035;-56
2021/09/10 05:59:55;;;;;;;4.13;3.30;;;;;;;;;;5021603;28;20045;-55
2021/09/10 06:02:22;;;;;;;5.35;3.28;;;;;;;;;;5025271;28;20448;-56
2021/09/10 06:04:47;;;;;;;4.25;2.90;;;;;;;;;;5031871;28;20037;-56
2021/09/10 06:07:13;;;;;;;5.18;3.05;;;;;;;;;;5028152;28;20034;-57
2021/09/10 06:09:38;;;;;;;6.72;4.03;;;;;;;;;;5029180;28;20065;-55
2021/09/10 06:12:05;;;;;;;4.75;3.63;;;;;;;;;;5030142;28;20029;-56
2021/09/10 06:14:31;;;;;;;4.10;2.80;;;;;;;;;;5030356;28;20112;-56
2021/09/10 06:16:56;;;;;;;4.15;3.53;;;;;;;;;;5029786;28;20124;-57
2021/09/10 06:19:22;;;;;;;5.20;3.60;;;;;;;;;;5027504;28;20074;-56
2021/09/10 06:21:47;;;;;;;3.55;2.88;;;;;;;;;;5030329;28;20036;-57
2021/09/10 06:24:13;;;;;;;3.88;2.90;;;;;;;;;;5023081;28;20037;-57
2021/09/10 06:26:38;;;;;;;3.83;2.92;;;;;;;;;;5026158;28;20096;-57
2021/09/10 06:29:03;;;;;;;4.28;3.30;;;;;;;;;;5029172;28;20052;-57
2021/09/10 06:31:29;;;;;;;4.63;2.92;;;;;;;;;;5025415;28;20116;-58
2021/09/10 06:33:54;;;;;;;3.58;3.05;;;;;;;;;;5029389;28;20109;-57
2021/09/10 06:36:20;;;;;;;3.88;3.10;;;;;;;;;;5029085;28;20045;-57
2021/09/10 06:38:45;;;;;;;4.13;3.13;;;;;;;;;;5028151;28;20048;-57
2021/09/10 06:41:10;;;;;;;3.72;3.03;;;;;;;;;;5027593;28;20676;-56
2021/09/10 06:43:36;;;;;;;4.63;3.15;;;;;;;;;;5025766;28;20014;-56
2021/09/10 06:46:01;;;;;;;3.85;3.45;;;;;;;;;;5024672;28;20459;-57
2021/09/10 06:48:27;;;;;;;4.35;3.55;;;;;;;;;;5023658;28;20044;-56
2021/09/10 06:50:52;;;;;;;3.85;3.30;;;;;;;;;;5023904;28;20125;-56
2021/09/10 06:53:17;;;;;;;4.03;3.33;;;;;;;;;;5023966;28;20037;-56
2021/09/10 06:55:43;;;;;;;6.22;4.18;;;;;;;;;;5026126;28;20100;-56
2021/09/10 06:58:08;;;;;;;3.70;3.05;;;;;;;;;;5028649;28;20115;-57
2021/09/10 07:00:34;;;;;;;6.60;4.10;;;;;;;;;;5027912;28;20053;-57
2021/09/10 07:02:59;;;;;;;4.25;3.13;;;;;;;;;;5023735;28;20030;-57
2021/09/10 07:05:24;;;;;;;3.88;3.20;;;;;;;;;;5028376;28;20040;-57
2021/09/10 07:07:51;;;;;;;6.97;4.05;;;;;;;;;;5028199;28;20470;-57
2021/09/10 07:10:17;;;;;;;3.83;3.42;;;;;;;;;;5026766;28;20052;-57
2021/09/10 07:12:42;;;;;;;7.30;4.70;;;;;;;;;;5028264;28;20037;-57
2021/09/10 07:15:08;;;;;;;4.60;4.05;;;;;;;;;;5027432;28;20029;-57
2021/09/10 07:17:33;;;;;;;4.30;3.72;;;;;;;;;;5026890;28;20131;-56
2021/09/10 07:19:59;;;;;;;4.43;3.88;;;;;;;;;;5026707;28;20686;-56
2021/09/10 07:22:26;;;;;;;6.05;5.00;;;;;;;;;;5026868;28;20036;-57
2021/09/10 07:24:51;;;;;;;4.85;3.83;;;;;;;;;;5027979;28;20033;-57
2021/09/10 07:27:17;;;;;;;5.57;3.47;;;;;;;;;;5028199;28;20063;-57
2021/09/10 07:29:42;;;;;;;5.28;4.07;;;;;;;;;;5026960;28;20067;-57
2021/09/10 07:32:08;;;;;;;4.00;2.95;;;;;;;;;;5028135;28;20038;-57
2021/09/10 07:34:33;;;;;;;4.63;3.42;;;;;;;;;;5031306;28;20037;-58
2021/09/10 07:36:59;;;;;;;4.85;3.95;;;;;;;;;;5031907;28;20378;-57
2021/09/10 07:39:25;;;;;;;3.80;2.60;;;;;;;;;;5031705;28;20041;-57
2021/09/10 07:41:51;;;;;;;4.03;3.22;;;;;;;;;;5032879;28;20037;-57
2021/09/10 07:44:17;;;;;;;3.88;3.08;;;;;;;;;;5032162;28;20073;-57
2021/09/10 07:46:43;;;;;;;4.75;3.72;;;;;;;;;;5031672;28;20029;-57
2021/09/10 07:49:09;;;;;;;3.80;3.28;;;;;;;;;;5031545;28;20452;-57
2021/09/10 07:51:38;;;;;;;8.32;4.00;;;;;;;;;;5030399;28;20128;-57
2021/09/10 07:54:05;;;;;;;5.05;3.97;;;;;;;;;;5035823;28;20124;-57
2021/09/10 07:56:31;;;;;;;4.25;3.85;;;;;;;;;;5031864;28;20034;-57
2021/09/10 07:58:56;;;;;;;5.90;4.05;;;;;;;;;;5031752;28;20060;-57
2021/09/10 08:01:21;;;;;;;3.45;3.05;;;;;;;;;;5031768;28;20576;-57
2021/09/10 08:03:47;;;;;;;4.45;3.65;;;;;;;;;;5027674;28;20180;-57
2021/09/10 08:06:12;;;;;;;5.00;3.97;;;;;;;;;;5030711;28;20119;-57
2021/09/10 08:08:38;;;;;;;3.83;3.42;;;;;;;;;;5034066;28;20125;-57
2021/09/10 08:11:04;;;;;;;4.13;3.72;;;;;;;;;;5028224;28;20051;-57
2021/09/10 08:13:30;;;;;;;5.47;4.63;;;;;;;;;;5028736;28;20030;-57
2021/09/10 08:15:55;;;;;;;3.65;3.28;;;;;;;;;;5028584;28;20025;-57
2021/09/10 08:18:21;;;;;;;3.88;3.45;;;;;;;;;;5025760;28;20120;-57
2021/09/10 08:20:46;;;;;;;4.95;3.80;;;;;;;;;;5025478;28;20030;-57
2021/09/10 08:23:12;;;;;;;4.40;3.83;;;;;;;;;;5030508;28;20064;-57
2021/09/10 08:25:37;;;;;;;3.40;3.08;;;;;;;;;;5029105;28;20030;-57
2021/09/10 08:28:03;;;;;;;5.47;3.70;;;;;;;;;;5030929;28;20560;-57
2021/09/10 08:30:28;;;;;;;3.90;3.17;;;;;;;;;;5030808;28;20053;-57
2021/09/10 08:32:55;;;;;;;4.60;2.85;;;;;;;;;;5026858;28;20038;-57
2021/09/10 08:35:21;;;;;;;4.78;3.55;;;;;;;;;;5027839;28;20451;-57
2021/09/10 08:37:46;;;;;;;4.57;3.83;;;;;;;;;;5030702;28;20037;-57
2021/09/10 08:40:12;;;;;;;4.22;3.05;;;;;;;;;;5028228;28;20048;-57
2021/09/10 08:42:38;;;;;;;4.38;3.15;;;;;;;;;;5030095;28;20033;-57
2021/09/10 08:45:04;;;;;;;3.53;2.92;;;;;;;;;;5029397;28;20030;-57
2021/09/10 08:47:30;;;;;;;3.70;3.35;;;;;;;;;;5030975;28;20116;-57
2021/09/10 08:49:56;;;;;;;5.75;3.30;;;;;;;;;;5028907;28;20045;-58
2021/09/10 08:52:22;;;;;;;3.55;2.67;;;;;;;;;;5029650;28;20386;-57
2021/09/10 08:54:48;;;;;;;3.40;2.92;;;;;;;;;;5028926;28;20031;-57
2021/09/10 08:57:13;;;;;;;3.90;2.95;;;;;;;;;;5031391;28;20116;-57
2021/09/10 08:59:38;;;;;;;4.28;3.40;;;;;;;;;;5027504;28;20425;-57
2021/09/10 09:02:04;;;;;;;4.22;3.83;;;;;;;;;;5029617;28;20047;-57
2021/09/10 09:04:38;;;;;;;5.03;3.53;;;;;;;;;;5024381;28;20065;-57
2021/09/10 09:07:06;;;;;;;4.07;3.40;;;;;;;;;;5028213;28;20394;-57
2021/09/10 09:09:45;;;;;;;5.43;4.82;;;;;;;;;;5028390;28;20372;-57
2021/09/10 09:12:31;;;;;;;4.35;3.95;;;;;;;;;;5028876;28;20060;-57
2021/09/10 09:15:01;;;;;;;5.10;4.70;;;;;;;;;;5029706;28;20033;-57
2021/09/10 09:17:28;;;;;;;4.70;4.30;;;;;;;;;;5029142;28;20041;-57
2021/09/10 09:20:24;;;;;;;5.82;5.35;;;;;;;;;;5026452;28;20044;-57
2021/09/10 09:22:53;;;;;;;6.70;6.20;;;;;;;;;;5024650;28;20042;-57
2021/09/10 09:25:23;;;;;;;6.47;5.97;;;;;;;;;;5024475;28;20392;-57
2021/09/10 09:27:48;;;;;;;7.43;6.70;;;;;;;;;;5029264;28;20114;-57
2021/09/10 09:30:32;;;;;;;8.57;7.97;;;;;;;;;;5028955;28;20033;-57
2021/09/10 09:32:57;;;;;;;7.95;7.35;;;;;;;;;;5030714;28;20386;-57
2021/09/10 09:35:24;;;;;;;8.23;7.60;;;;;;;;;;5030554;28;20029;-57
2021/09/10 09:37:49;;;;;;;7.60;7.00;;;;;;;;;;5029901;28;20025;-57
2021/09/10 09:40:15;;;;;;;8.10;7.55;;;;;;;;;;5030018;28;20029;-57
2021/09/10 09:42:40;;;;;;;9.82;8.98;;;;;;;;;;5030065;28;20083;-57
2021/09/10 09:45:09;;;;;;;8.82;7.82;;;;;;;;;;5029002;28;20040;-57
2021/09/10 09:47:36;;;;;;;6.55;6.05;;;;;;;;;;5027742;28;20033;-57
2021/09/10 09:50:17;;;;;;;6.93;6.43;;;;;;;;;;5029339;28;20037;-57
2021/09/10 09:52:43;;;;;;;6.97;6.43;;;;;;;;;;5030016;28;20029;-57
2021/09/10 09:55:10;;;;;;;6.68;6.18;;;;;;;;;;5020563;28;20383;-57
2021/09/10 09:57:35;;;;;;;6.55;5.57;;;;;;;;;;5028850;28;20025;-57
2021/09/10 10:00:06;;;;;;;5.70;5.20;;;;;;;;;;5026299;28;20075;-57
2021/09/10 10:02:33;;;;;;;5.80;5.30;;;;;;;;;;5030636;28;20034;-58
2021/09/10 10:05:00;;;;;;;7.60;5.40;;;;;;;;;;5027424;28;20123;-57
2021/09/10 10:07:41;;;;;;;4.03;3.63;;;;;;;;;;5030349;28;20476;-58
2021/09/10 10:10:07;;;;;;;4.82;4.38;;;;;;;;;;5030172;28;20057;-58
2021/09/10 10:12:34;;;;;;;5.38;4.95;;;;;;;;;;5029703;28;20040;-57
2021/09/10 10:15:27;;;;;;;5.43;5.03;;;;;;;;;;5030066;28;20025;-57
2021/09/10 10:17:55;;;;;;;5.85;5.32;;;;;;;;;;5030217;28;20108;-57
2021/09/10 10:20:45;;;;;;;5.82;5.43;;;;;;;;;;5030394;28;20477;-57
2021/09/10 10:23:29;;;;;;;;;;;;;;;;;;5029258;28;20091;-57
2021/09/10 10:26:06;;;;;;;3.47;2.97;;;;;;;;;;5029045;28;20290;-57
2021/09/10 10:28:48;;;;;;;4.22;3.83;;;;;;;;;;5028740;28;20021;-57
2021/09/10 10:31:14;;;;;;;4.03;3.45;;;;;;;;;;5029253;28;20044;-57
2021/09/10 10:34:02;;;;;;;4.65;4.25;;;;;;;;;;5028798;28;20045;-57
2021/09/10 10:36:29;;;;;;;3.53;3.22;;;;;;;;;;5029662;28;20108;-57
2021/09/10 10:39:12;;;;;;;3.50;3.10;;;;;;;;;;5028544;28;20366;-57
2021/09/10 10:41:53;;;;;;;3.83;3.42;;;;;;;;;;5029285;28;20033;-57
2021/09/10 10:44:31;;;;;;;3.95;3.55;;;;;;;;;;5029647;28;20037;-57
2021/09/10 10:47:02;;;;;;;4.05;3.65;;;;;;;;;;5027660;28;20037;-57
2021/09/10 10:49:40;;;;;;;4.32;3.58;;;;;;;;;;5027296;28;20036;-58
2021/09/10 10:52:29;;;;;;;3.80;3.40;;;;;;;;;;5028982;28;20036;-56
2021/09/10 10:55:13;;;;;;;2.95;2.65;;;;;;;;;;5028990;28;20450;-56
2021/09/10 10:57:38;;;;;;;4.60;3.95;;;;;;;;;;5027609;28;20044;-56
2021/09/10 11:00:27;;;;;;;4.65;4.25;;;;;;;;;;5027836;28;20034;-57
2021/09/10 11:03:15;;;;;;;4.28;3.63;;;;;;;;;;5023542;28;20099;-57
2021/09/10 11:05:46;;;;;;;4.05;3.65;;;;;;;;;;5028762;28;20029;-56
2021/09/10 11:08:11;;;;;;;;;;;;;;;;;;5028726;28;20470;-56
2021/09/10 11:10:37;;;;;;;4.10;3.70;;;;;;;;;;5027729;28;19916;-56
2021/09/10 11:13:03;;;;;;;4.82;4.43;;;;;;;;;;5029103;28;20033;-56
2021/09/10 11:15:33;;;;;;;3.78;3.47;;;;;;;;;;5029472;28;20021;-56
2021/09/10 11:18:05;;;;;;;4.45;3.92;;;;;;;;;;5028122;28;20490;-56
2021/09/10 11:20:40;;;;;;;7.63;4.95;;;;;;;;;;5024907;28;20040;-56
2021/09/10 11:23:17;;;;;;;5.20;4.75;;;;;;;;;;5028634;28;20112;-57
2021/09/10 11:25:53;;;;;;;4.68;4.28;;;;;;;;;;5027766;28;20455;-56
2021/09/10 11:28:20;;;;;;;5.32;4.93;;;;;;;;;;5028060;28;20041;-57
2021/09/10 11:30:48;;;;;;;4.30;3.90;;;;;;;;;;5028580;28;20067;-56
2021/09/10 11:33:14;;;;;;;5.15;4.75;;;;;;;;;;5028128;28;20052;-56
2021/09/10 11:35:40;;;;;;;4.63;4.22;;;;;;;;;;5028554;28;20116;-56
2021/09/10 11:38:22;;;;;;;5.38;4.97;;;;;;;;;;5027251;28;20029;-56
2021/09/10 11:40:57;;;;;;;7.13;6.63;;;;;;;;;;5028853;28;20619;-56
2021/09/10 11:43:29;;;;;;;6.68;6.18;;;;;;;;;;5043290;28;20059;-56
2021/09/10 11:45:57;;;;;;;6.82;6.32;;;;;;;;;;5026565;28;20370;-55
2021/09/10 11:48:29;;;;;;;6.05;5.55;;;;;;;;;;5024551;28;20053;-56
2021/09/10 11:51:07;;;;;;;5.60;5.20;;;;;;;;;;5026877;28;20128;-56
2021/09/10 11:53:44;;;;;;;7.05;6.55;;;;;;;;;;5027127;28;20112;-56
2021/09/10 11:56:12;;;;;;;7.03;6.53;;;;;;;;;;5027398;28;20419;-56
2021/09/10 11:58:41;;;;;;;6.88;6.38;;;;;;;;;;5030410;28;20087;-55
2021/09/10 12:01:21;;;;;;;6.43;5.93;;;;;;;;;;5025432;28;20037;-56
2021/09/10 12:03:57;;;;;;;6.82;6.32;;;;;;;;;;5027894;28;20053;-56
2021/09/10 12:06:25;;;;;;;8.82;8.23;;;;;;;;;;5025380;28;20037;-58
2021/09/10 12:09:27;;;;;;;8.32;7.72;;;;;;;;;;5028272;28;20036;-57
2021/09/10 12:12:08;;;;;;;8.63;8.02;;;;;;;;;;5028787;28;20036;-58
2021/09/10 12:14:52;;;;;;;9.43;8.82;;;;;;;;;;5027730;28;20033;-58
2021/09/10 12:17:23;;;;;;;8.57;7.97;;;;;;;;;;5028066;28;20037;-58
2021/09/10 12:19:50;;;;;;;8.52;7.93;;;;;;;;;;5029325;28;20030;-58
2021/09/10 12:22:44;;;;;;;8.40;7.80;;;;;;;;;;5030346;28;20064;-58
2021/09/10 12:25:22;;;;;;;7.15;6.65;;;;;;;;;;5021580;28;20051;-58
2021/09/10 12:28:18;;;;;;;9.52;8.93;;;;;;;;;;5030807;28;20061;-58
2021/09/10 12:30:55;;;;;;;8.88;8.27;;;;;;;;;;5014528;28;20073;-58
2021/09/10 12:33:23;;;;;;;9.45;8.85;;;;;;;;;;5030870;28;20475;-58
2021/09/10 12:35:52;;;;;;;8.98;8.38;;;;;;;;;;5028934;28;20030;-58
2021/09/10 12:38:19;;;;;;;9.75;8.95;;;;;;;;;;5026379;28;20045;-58
2021/09/10 12:40:47;;;;;;;8.35;7.75;;;;;;;;;;5030282;28;20495;-58
2021/09/10 12:43:14;;;;;;;7.95;7.35;;;;;;;;;;5028224;28;20033;-58
2021/09/10 12:45:40;;;;;;;7.70;7.10;;;;;;;;;;5028068;28;20048;-58
2021/09/10 12:48:06;;;;;;;5.38;4.97;;;;;;;;;;5029877;28;20355;-58
2021/09/10 12:50:33;;;;;;;6.70;6.20;;;;;;;;;;5030163;28;20040;-58
2021/09/10 12:52:58;;;;;;;5.45;5.05;;;;;;;;;;5029701;28;20061;-58
2021/09/10 12:55:24;;;;;;;4.82;4.43;;;;;;;;;;5029734;28;20041;-58
2021/09/10 12:57:50;;;;;;;7.35;6.85;;;;;;;;;;5027394;28;20040;-60
2021/09/10 13:00:15;;;;;;;10.65;9.95;;;;;;;;;;5026133;28;20045;-60
2021/09/10 13:02:41;;;;;;;8.93;8.32;;;;;;;;;;5030903;28;20037;-60
2021/09/10 13:05:08;;;;;;;5.65;5.15;;;;;;;;;;5030351;28;20180;-60
2021/09/10 13:07:34;;;;;;;8.02;7.47;;;;;;;;;;5030504;28;20033;-60
2021/09/10 13:10:00;;;;;;;6.35;5.85;;;;;;;;;;5030694;28;20048;-60
2021/09/10 13:12:26;;;;;;;8.07;7.57;;;;;;;;;;5029737;28;20029;-59
2021/09/10 13:14:52;;;;;;;7.10;6.60;;;;;;;;;;5031221;28;20037;-60
2021/09/10 13:17:20;;;;;;;9.15;8.55;;;;;;;;;;5030557;28;20033;-60
2021/09/10 13:19:46;;;;;;;9.10;8.40;;;;;;;;;;5030449;28;20041;-60
2021/09/10 13:22:12;;;;;;;10.23;9.63;;;;;;;;;;5031089;28;20041;-59
2021/09/10 13:24:38;;;;;;;9.30;8.70;;;;;;;;;;5031167;28;20494;-59
2021/09/10 13:27:04;;;;;;;9.20;8.60;;;;;;;;;;5030464;28;20028;-59
2021/09/10 13:29:30;;;;;;;8.52;7.93;;;;;;;;;;5030558;28;20025;-58
2021/09/10 13:31:55;;;;;;;7.80;7.22;;;;;;;;;;5029629;28;20042;-59
2021/09/10 13:34:23;;;;;;;8.32;7.72;;;;;;;;;;5030210;28;20045;-59
2021/09/10 13:36:50;;;;;;;9.32;8.65;;;;;;;;;;5029306;28;20132;-60
2021/09/10 13:39:15;;;;;;;8.85;8.25;;;;;;;;;;5030310;28;20032;-60
2021/09/10 13:41:40;;;;;;;8.80;8.20;;;;;;;;;;5029699;28;20041;-59
2021/09/10 13:44:06;;;;;;;8.63;7.95;;;;;;;;;;5030046;28;20086;-59
2021/09/10 13:46:31;;;;;;;9.15;8.48;;;;;;;;;;5030290;28;20120;-59
2021/09/10 13:48:57;;;;;;;8.80;8.20;;;;;;;;;;5027064;28;20022;-59
2021/09/10 13:51:23;;;;;;;8.10;7.50;;;;;;;;;;5026922;28;20455;-59
2021/09/10 13:53:49;;;;;;;7.90;7.20;;;;;;;;;;5026701;28;20048;-59
2021/09/10 13:56:15;;;;;;;6.68;6.13;;;;;;;;;;5028748;28;20033;-59
2021/09/10 13:58:40;;;;;;;6.80;6.30;;;;;;;;;;5030111;28;20363;-60
2021/09/10 14:01:06;;;;;;;7.55;6.95;;;;;;;;;;5029707;28;20074;-60
2021/09/10 14:03:31;;;;;;;8.15;7.45;;;;;;;;;;5030280;28;20022;-60
2021/09/10 14:05:56;;;;;;;8.05;7.45;;;;;;;;;;5029492;28;20087;-60
2021/09/10 14:08:22;;;;;;;8.63;5.07;;;;;;;;;;5029789;28;20032;-60
2021/09/10 14:10:47;;;;;;;6.55;5.95;;;;;;;;;;5027955;28;20043;-60
2021/09/10 14:13:13;;;;;;;5.25;4.78;;;;;;;;;;5022627;28;20466;-60
2021/09/10 14:15:38;;;;;;;4.82;4.35;;;;;;;;;;5025837;28;20048;-59
2021/09/10 14:18:03;;;;;;;5.82;5.32;;;;;;;;;;5017488;28;20123;-59
2021/09/10 14:20:29;;;;;;;4.93;4.50;;;;;;;;;;5024580;28;20044;-58
2021/09/10 14:22:54;;;;;;;4.63;4.22;;;;;;;;;;5028214;28;20120;-59
2021/09/10 14:25:20;;;;;;;7.60;7.07;;;;;;;;;;5026999;28;20026;-59
2021/09/10 14:27:45;;;;;;;5.50;5.07;;;;;;;;;;5028892;28;20442;-58
2021/09/10 14:30:10;;;;;;;4.85;4.45;;;;;;;;;;5024913;28;20063;-59
2021/09/10 14:32:36;;;;;;;4.97;4.57;;;;;;;;;;5029397;28;20478;-59
2021/09/10 14:35:01;;;;;;;4.55;4.15;;;;;;;;;;5029327;28;20029;-59
2021/09/10 14:37:27;;;;;;;5.55;5.00;;;;;;;;;;5029485;28;20391;-59
2021/09/10 14:39:52;;;;;;;5.45;4.95;;;;;;;;;;5029541;28;20083;-58
2021/09/10 14:42:17;;;;;;;4.30;3.90;;;;;;;;;;5006689;28;20061;-58
2021/09/10 14:44:43;;;;;;;5.75;5.25;;;;;;;;;;5026202;28;20047;-57
2021/09/10 14:47:08;;;;;;;5.38;4.97;;;;;;;;;;5027047;28;20121;-58